sensor_id;sensor_type;location;lat;lon;timestamp;pressure;altitude;pressure_sealevel;temperature;humidity
14253;BME280;7210;51.502;10.722;2022-11-06T00:01:56;99867.38;;;4.45;100.00
14253;BME280;7210;51.502;10.722;2022-11-06T00:04:24;99864.75;;;4.45;100.00
14253;BME280;7210;51.502;10.722;2022-11-06T00:06:55;99870.00;;;4.45;100.00
14253;BME280;7210;51.502;10.722;2022-11-06T00:09:22;99864.75;;;4.45;100.00
14253;BME280;7210;51.502;10.722;2022-11-06T00:11:50;99871.28;;;4.49;100.00
14253;BME280;7210;51.502;10.722;2022-11-06T00:14:18;99861.69;;;4.56;100.00
14253;BME280;7210;51.502;10.722;2022-11-06T00:16:47;99860.69;;;4.57;100.00
14253;BME280;7210;51.502;10.722;2022-11-06T00:19:15;99842.31;;;4.50;100.00
14253;BME280;7210;51.502;10.722;2022-11-06T00:21:43;99838.25;;;4.48;100.00
14253;BME280;7210;51.502;10.722;2022-11-06T00:24:13;99832.47;;;4.38;100.00
14253;BME280;7210;51.502;10.722;2022-11-06T00:26:42;99827.97;;;4.32;100.00
14253;BME280;7210;51.502;10.722;2022-11-06T00:29:13;99827.59;;;4.35;100.00
14253;BME280;7210;51.502;10.722;2022-11-06T00:31:40;99829.19;;;4.36;100.00
14253;BME280;7210;51.502;10.722;2022-11-06T00:34:09;99835.81;;;4.32;100.00
14253;BME280;7210;51.502;10.722;2022-11-06T00:36:39;99830.75;;;4.30;100.00
14253;BME280;7210;51.502;10.722;2022-11-06T00:39:11;99838.44;;;4.32;100.00
14253;BME280;7210;51.502;10.722;2022-11-06T00:41:38;99827.31;;;4.30;100.00
14253;BME280;7210;51.502;10.722;2022-11-06T00:44:08;99833.19;;;4.32;100.00
14253;BME280;7210;51.502;10.722;2022-11-06T00:46:37;99836.44;;;4.34;100.00
14253;BME280;7210;51.502;10.722;2022-11-06T00:49:04;99838.44;;;4.32;100.00
14253;BME280;7210;51.502;10.722;2022-11-06T00:51:35;99839.41;;;4.31;100.00
14253;BME280;7210;51.502;10.722;2022-11-06T00:54:07;99842.03;;;4.31;100.00
14253;BME280;7210;51.502;10.722;2022-11-06T00:56:37;99834.97;;;4.31;100.00
14253;BME280;7210;51.502;10.722;2022-11-06T00:59:08;99826.34;;;4.31;100.00
14253;BME280;7210;51.502;10.722;2022-11-06T01:01:38;99832.47;;;4.38;100.00
14253;BME280;7210;51.502;10.722;2022-11-06T01:04:10;99834.09;;;4.39;100.00
14253;BME280;7210;51.502;10.722;2022-11-06T01:06:40;99831.19;;;4.34;100.00
14253;BME280;7210;51.502;10.722;2022-11-06T01:09:09;99839.13;;;4.26;100.00
14253;BME280;7210;51.502;10.722;2022-11-06T01:11:42;99832.53;;;4.15;100.00
14253;BME280;7210;51.502;10.722;2022-11-06T01:14:12;99825.63;;;4.08;100.00
14253;BME280;7210;51.502;10.722;2022-11-06T01:16:40;99818.31;;;4.03;100.00
14253;BME280;7210;51.502;10.722;2022-11-06T01:19:10;99826.94;;;4.04;100.00
14253;BME280;7210;51.502;10.722;2022-11-06T01:21:40;99824.34;;;4.04;100.00
14253;BME280;7210;51.502;10.722;2022-11-06T01:24:14;99824.34;;;4.04;100.00
14253;BME280;7210;51.502;10.722;2022-11-06T01:26:43;99826.94;;;4.04;100.00
14253;BME280;7210;51.502;10.722;2022-11-06T01:29:14;99830.28;;;3.98;100.00
14253;BME280;7210;51.502;10.722;2022-11-06T01:31:42;99833.78;;;3.90;100.00
14253;BME280;7210;51.502;10.722;2022-11-06T01:34:11;99829.25;;;3.84;100.00
14253;BME280;7210;51.502;10.722;2022-11-06T01:36:38;99832.59;;;3.78;100.00
14253;BME280;7210;51.502;10.722;2022-11-06T01:39:09;99823.03;;;3.71;100.00
14253;BME280;7210;51.502;10.722;2022-11-06T01:41:44;99814.91;;;3.66;100.00
14253;BME280;7210;51.502;10.722;2022-11-06T01:47:36;99807.94;;;3.58;100.00
14253;BME280;7210;51.502;10.722;2022-11-06T01:50:07;99801.91;;;3.58;100.00
14253;BME280;7210;51.502;10.722;2022-11-06T01:52:36;99797.84;;;3.55;100.00
14253;BME280;7210;51.502;10.722;2022-11-06T01:55:12;99797.38;;;3.52;100.00
14253;BME280;7210;51.502;10.722;2022-11-06T01:57:42;99797.09;;;3.47;100.00
14253;BME280;7210;51.502;10.722;2022-11-06T02:00:11;99794.03;;;3.44;100.00
14253;BME280;7210;51.502;10.722;2022-11-06T02:02:40;99802.41;;;3.39;100.00
14253;BME280;7210;51.502;10.722;2022-11-06T02:05:08;99809.63;;;3.37;100.00
14253;BME280;7210;51.502;10.722;2022-11-06T02:07:35;99799.50;;;3.34;100.00
14253;BME280;7210;51.502;10.722;2022-11-06T02:10:05;99803.78;;;3.27;100.00
14253;BME280;7210;51.502;10.722;2022-11-06T02:12:49;99802.84;;;3.20;100.00
14253;BME280;7210;51.502;10.722;2022-11-06T02:15:29;99801.94;;;3.13;100.00
14253;BME280;7210;51.502;10.722;2022-11-06T02:18:23;99803.28;;;3.09;100.00
14253;BME280;7210;51.502;10.722;2022-11-06T02:21:31;99803.97;;;3.03;100.00
14253;BME280;7210;51.502;10.722;2022-11-06T02:24:46;99806.56;;;3.03;100.00
14253;BME280;7210;51.502;10.722;2022-11-06T02:27:21;99800.03;;;3.07;100.00
14253;BME280;7210;51.502;10.722;2022-11-06T02:29:55;99802.22;;;3.18;100.00
14253;BME280;7210;51.502;10.722;2022-11-06T02:32:32;99793.69;;;3.24;100.00
14253;BME280;7210;51.502;10.722;2022-11-06T02:35:12;99807.03;;;3.29;100.00
14253;BME280;7210;51.502;10.722;2022-11-06T02:37:45;99806.16;;;3.37;100.00
14253;BME280;7210;51.502;10.722;2022-11-06T02:40:15;99805.13;;;3.60;100.00
14253;BME280;7210;51.502;10.722;2022-11-06T02:42:49;99812.03;;;3.90;100.00
14253;BME280;7210;51.502;10.722;2022-11-06T02:45:22;99819.09;;;4.04;100.00
14253;BME280;7210;51.502;10.722;2022-11-06T02:47:53;99813.88;;;4.04;100.00
14253;BME280;7210;51.502;10.722;2022-11-06T02:50:25;99821.00;;;4.10;100.00
14253;BME280;7210;51.502;10.722;2022-11-06T02:52:59;99825.78;;;4.06;100.00
14253;BME280;7210;51.502;10.722;2022-11-06T02:55:34;99820.09;;;4.03;100.00
14253;BME280;7210;51.502;10.722;2022-11-06T02:58:10;99823.88;;;4.00;100.00
14253;BME280;7210;51.502;10.722;2022-11-06T03:00:40;99801.03;;;3.94;100.00
14253;BME280;7210;51.502;10.722;2022-11-06T03:03:16;99807.84;;;4.03;100.00
14253;BME280;7210;51.502;10.722;2022-11-06T03:05:53;99810.25;;;4.05;100.00
14253;BME280;7210;51.502;10.722;2022-11-06T03:08:28;99798.53;;;4.01;100.00
14253;BME280;7210;51.502;10.722;2022-11-06T03:11:16;99805.31;;;3.95;100.00
14253;BME280;7210;51.502;10.722;2022-11-06T03:13:53;99812.16;;;3.96;100.00
14253;BME280;7210;51.502;10.722;2022-11-06T03:16:32;99815.41;;;3.98;100.00
14253;BME280;7210;51.502;10.722;2022-11-06T03:19:10;99799.78;;;4.05;100.00
14253;BME280;7210;51.502;10.722;2022-11-06T03:21:50;99797.47;;;4.10;100.00
14253;BME280;7210;51.502;10.722;2022-11-06T03:24:29;99805.38;;;4.16;100.00
14253;BME280;7210;51.502;10.722;2022-11-06T03:27:04;99798.44;;;4.23;100.00
14253;BME280;7210;51.502;10.722;2022-11-06T03:29:40;99794.50;;;4.27;100.00
14253;BME280;7210;51.502;10.722;2022-11-06T03:32:16;99792.03;;;4.26;100.00
14253;BME280;7210;51.502;10.722;2022-11-06T03:34:52;99793.75;;;4.33;100.00
14253;BME280;7210;51.502;10.722;2022-11-06T03:37:28;99786.72;;;4.34;100.00
14253;BME280;7210;51.502;10.722;2022-11-06T03:40:02;99784.09;;;4.34;100.00
14253;BME280;7210;51.502;10.722;2022-11-06T03:42:32;99775.63;;;4.32;100.00
14253;BME280;7210;51.502;10.722;2022-11-06T03:45:06;99769.94;;;4.28;100.00
14253;BME280;7210;51.502;10.722;2022-11-06T03:47:41;99774.09;;;4.23;100.00
14253;BME280;7210;51.502;10.722;2022-11-06T03:50:15;99765.34;;;4.16;100.00
14253;BME280;7210;51.502;10.722;2022-11-06T03:52:52;99765.25;;;4.09;100.00
14253;BME280;7210;51.502;10.722;2022-11-06T03:55:28;99753.88;;;4.02;100.00
14253;BME280;7210;51.502;10.722;2022-11-06T03:58:02;99769.13;;;3.99;100.00
14253;BME280;7210;51.502;10.722;2022-11-06T04:00:35;99760.84;;;3.95;100.00
14253;BME280;7210;51.502;10.722;2022-11-06T04:03:13;99766.25;;;3.94;100.00
14253;BME280;7210;51.502;10.722;2022-11-06T04:05:51;99761.03;;;3.94;100.00
14253;BME280;7210;51.502;10.722;2022-11-06T04:08:24;99761.47;;;3.97;100.00
14253;BME280;7210;51.502;10.722;2022-11-06T04:11:15;99763.53;;;4.02;100.00
14253;BME280;7210;51.502;10.722;2022-11-06T04:14:02;99749.19;;;3.98;100.00
14253;BME280;7210;51.502;10.722;2022-11-06T04:16:36;99757.22;;;4.11;100.00
14253;BME280;7210;51.502;10.722;2022-11-06T04:19:12;99768.59;;;4.18;100.00
14253;BME280;7210;51.502;10.722;2022-11-06T04:21:59;99764.59;;;4.22;100.00
14253;BME280;7210;51.502;10.722;2022-11-06T04:24:40;99753.72;;;4.18;100.00
14253;BME280;7210;51.502;10.722;2022-11-06T04:27:47;99766.41;;;4.36;100.00
14253;BME280;7210;51.502;10.722;2022-11-06T04:30:22;99763.59;;;4.37;100.00
14253;BME280;7210;51.502;10.722;2022-11-06T04:33:05;99756.19;;;4.41;100.00
14253;BME280;7210;51.502;10.722;2022-11-06T04:35:50;99749.97;;;4.42;100.00
14253;BME280;7210;51.502;10.722;2022-11-06T04:38:32;99752.41;;;4.43;100.00
14253;BME280;7210;51.502;10.722;2022-11-06T04:41:16;99752.66;;;4.48;100.00
14253;BME280;7210;51.502;10.722;2022-11-06T04:43:51;99749.06;;;4.49;100.00
14253;BME280;7210;51.502;10.722;2022-11-06T04:46:25;99751.03;;;4.47;100.00
14253;BME280;7210;51.502;10.722;2022-11-06T04:48:56;99754.53;;;4.54;100.00
14253;BME280;7210;51.502;10.722;2022-11-06T04:51:30;99759.00;;;4.54;100.00
14253;BME280;7210;51.502;10.722;2022-11-06T04:53:58;99744.47;;;4.51;100.00
14253;BME280;7210;51.502;10.722;2022-11-06T04:56:30;99755.38;;;4.55;100.00
14253;BME280;7210;51.502;10.722;2022-11-06T04:58:58;99737.41;;;4.52;100.00
14253;BME280;7210;51.502;10.722;2022-11-06T05:01:25;99744.00;;;4.48;100.00
14253;BME280;7210;51.502;10.722;2022-11-06T05:03:54;99738.16;;;4.46;100.00
14253;BME280;7210;51.502;10.722;2022-11-06T05:06:21;99743.75;;;4.43;100.00
14253;BME280;7210;51.502;10.722;2022-11-06T05:08:49;99739.06;;;4.38;100.00
14253;BME280;7210;51.502;10.722;2022-11-06T05:11:16;99739.44;;;4.35;100.00
14253;BME280;7210;51.502;10.722;2022-11-06T05:13:43;99738.16;;;4.31;100.00
14253;BME280;7210;51.502;10.722;2022-11-06T05:16:11;99741.34;;;4.27;100.00
14253;BME280;7210;51.502;10.722;2022-11-06T05:18:38;99736.47;;;4.24;100.00
14253;BME280;7210;51.502;10.722;2022-11-06T05:21:07;99742.06;;;4.21;100.00
14253;BME280;7210;51.502;10.722;2022-11-06T05:23:51;99742.88;;;4.21;100.00
14253;BME280;7210;51.502;10.722;2022-11-06T05:26:18;99742.88;;;4.21;100.00
14253;BME280;7210;51.502;10.722;2022-11-06T05:28:46;99752.53;;;4.21;100.00
14253;BME280;7210;51.502;10.722;2022-11-06T05:31:13;99744.50;;;4.22;100.00
14253;BME280;7210;51.502;10.722;2022-11-06T05:33:40;99754.50;;;4.19;100.00
14253;BME280;7210;51.502;10.722;2022-11-06T05:36:09;99748.13;;;4.21;100.00
14253;BME280;7210;51.502;10.722;2022-11-06T05:38:37;99742.06;;;4.21;100.00
14253;BME280;7210;51.502;10.722;2022-11-06T05:41:04;99737.19;;;4.18;100.00
14253;BME280;7210;51.502;10.722;2022-11-06T05:43:35;99730.44;;;4.09;100.00
14253;BME280;7210;51.502;10.722;2022-11-06T05:46:03;99733.06;;;4.09;100.00
14253;BME280;7210;51.502;10.722;2022-11-06T05:48:31;99734.84;;;4.08;100.00
14253;BME280;7210;51.502;10.722;2022-11-06T05:51:01;99735.06;;;4.07;100.00
14253;BME280;7210;51.502;10.722;2022-11-06T05:53:33;99735.69;;;4.09;100.00
14253;BME280;7210;51.502;10.722;2022-11-06T05:56:06;99740.53;;;4.12;100.00
14253;BME280;7210;51.502;10.722;2022-11-06T05:58:34;99736.81;;;4.21;100.00
14253;BME280;7210;51.502;10.722;2022-11-06T06:01:01;99748.00;;;4.29;100.00
14253;BME280;7210;51.502;10.722;2022-11-06T06:03:28;99746.47;;;4.35;100.00
14253;BME280;7210;51.502;10.722;2022-11-06T06:05:56;99743.91;;;4.41;100.00
14253;BME280;7210;51.502;10.722;2022-11-06T06:08:23;99748.88;;;4.51;100.00
14253;BME280;7210;51.502;10.722;2022-11-06T06:10:52;99746.13;;;4.59;100.00
14253;BME280;7210;51.502;10.722;2022-11-06T06:13:19;99725.41;;;4.57;100.00
14253;BME280;7210;51.502;10.722;2022-11-06T06:15:46;99733.31;;;4.64;100.00
14253;BME280;7210;51.502;10.722;2022-11-06T06:18:14;99736.38;;;4.67;100.00
14253;BME280;7210;51.502;10.722;2022-11-06T06:20:41;99720.09;;;4.72;100.00
14253;BME280;7210;51.502;10.722;2022-11-06T06:23:09;99717.94;;;4.75;100.00
14253;BME280;7210;51.502;10.722;2022-11-06T06:25:36;99724.22;;;4.81;100.00
14253;BME280;7210;51.502;10.722;2022-11-06T06:28:05;99717.81;;;4.83;100.00
14253;BME280;7210;51.502;10.722;2022-11-06T06:30:32;99725.47;;;4.85;100.00
14253;BME280;7210;51.502;10.722;2022-11-06T06:33:05;99729.94;;;4.91;100.00
14253;BME280;7210;51.502;10.722;2022-11-06T06:35:33;99736.28;;;4.96;100.00
14253;BME280;7210;51.502;10.722;2022-11-06T06:38:01;99736.50;;;5.01;100.00
14253;BME280;7210;51.502;10.722;2022-11-06T06:40:28;99736.94;;;5.05;100.00
14253;BME280;7210;51.502;10.722;2022-11-06T06:42:56;99740.81;;;5.09;100.00
14253;BME280;7210;51.502;10.722;2022-11-06T06:45:25;99732.97;;;5.09;100.00
14253;BME280;7210;51.502;10.722;2022-11-06T06:47:53;99725.72;;;5.11;100.00
14253;BME280;7210;51.502;10.722;2022-11-06T06:50:20;99726.59;;;5.18;100.00
14253;BME280;7210;51.502;10.722;2022-11-06T06:52:47;99731.44;;;5.21;100.00
14253;BME280;7210;51.502;10.722;2022-11-06T06:55:15;99709.25;;;5.17;100.00
14253;BME280;7210;51.502;10.722;2022-11-06T06:57:42;99721.22;;;5.26;100.00
14253;BME280;7210;51.502;10.722;2022-11-06T07:00:10;99732.56;;;5.33;100.00
14253;BME280;7210;51.502;10.722;2022-11-06T07:02:39;99730.72;;;5.33;100.00
14253;BME280;7210;51.502;10.722;2022-11-06T07:05:07;99722.28;;;5.38;100.00
14253;BME280;7210;51.502;10.722;2022-11-06T07:07:34;99717.91;;;5.45;100.00
14253;BME280;7210;51.502;10.722;2022-11-06T07:10:02;99717.56;;;5.48;100.00
14253;BME280;7210;51.502;10.722;2022-11-06T07:12:30;99715.53;;;5.50;100.00
14253;BME280;7210;51.502;10.722;2022-11-06T07:14:57;99708.50;;;5.50;100.00
14253;BME280;7210;51.502;10.722;2022-11-06T07:17:24;99705.09;;;5.56;100.00
14253;BME280;7210;51.502;10.722;2022-11-06T07:19:53;99707.91;;;5.55;100.00
14253;BME280;7210;51.502;10.722;2022-11-06T07:22:20;99719.28;;;5.62;100.00
14253;BME280;7210;51.502;10.722;2022-11-06T07:24:48;99704.75;;;5.66;100.00
14253;BME280;7210;51.502;10.722;2022-11-06T07:27:15;99713.63;;;5.65;100.00
14253;BME280;7210;51.502;10.722;2022-11-06T07:29:42;99709.56;;;5.62;100.00
14253;BME280;7210;51.502;10.722;2022-11-06T07:32:10;99709.19;;;5.65;100.00
14253;BME280;7210;51.502;10.722;2022-11-06T07:34:37;99709.25;;;5.72;100.00
14253;BME280;7210;51.502;10.722;2022-11-06T07:37:06;99715.09;;;5.74;100.00
14253;BME280;7210;51.502;10.722;2022-11-06T07:39:33;99699.75;;;5.71;100.00
14253;BME280;7210;51.502;10.722;2022-11-06T07:42:01;99700.75;;;5.70;100.00
14253;BME280;7210;51.502;10.722;2022-11-06T07:44:34;99701.13;;;5.67;100.00
14253;BME280;7210;51.502;10.722;2022-11-06T07:47:01;99704.50;;;5.61;100.00
14253;BME280;7210;51.502;10.722;2022-11-06T07:49:29;99696.91;;;5.72;100.00
14253;BME280;7210;51.502;10.722;2022-11-06T07:51:56;99701.31;;;5.65;100.00
14253;BME280;7210;51.502;10.722;2022-11-06T07:54:25;99710.75;;;5.60;100.00
14253;BME280;7210;51.502;10.722;2022-11-06T07:56:52;99704.66;;;5.53;100.00
14253;BME280;7210;51.502;10.722;2022-11-06T07:59:20;99701.81;;;5.48;100.00
14253;BME280;7210;51.502;10.722;2022-11-06T08:01:47;99707.28;;;5.53;100.00
14253;BME280;7210;51.502;10.722;2022-11-06T08:04:14;99700.06;;;5.55;100.00
14253;BME280;7210;51.502;10.722;2022-11-06T08:06:41;99702.69;;;5.55;100.00
14253;BME280;7210;51.502;10.722;2022-11-06T08:09:09;99698.06;;;5.63;100.00
14253;BME280;7210;51.502;10.722;2022-11-06T08:11:37;99704.56;;;5.67;100.00
14253;BME280;7210;51.502;10.722;2022-11-06T08:14:05;99686.63;;;5.71;100.00
14253;BME280;7210;51.502;10.722;2022-11-06T08:16:32;99685.63;;;5.72;100.00
14253;BME280;7210;51.502;10.722;2022-11-06T08:18:59;99689.09;;;5.79;100.00
14253;BME280;7210;51.502;10.722;2022-11-06T08:21:29;99667.75;;;5.82;100.00
14253;BME280;7210;51.502;10.722;2022-11-06T08:24:06;99700.84;;;6.30;100.00
14253;BME280;7210;51.502;10.722;2022-11-06T08:26:33;99683.53;;;6.42;100.00
14253;BME280;7210;51.502;10.722;2022-11-06T08:29:02;99682.94;;;6.40;100.00
14253;BME280;7210;51.502;10.722;2022-11-06T08:31:29;99685.94;;;6.37;100.00
14253;BME280;7210;51.502;10.722;2022-11-06T08:33:59;99681.50;;;6.37;100.00
14253;BME280;7210;51.502;10.722;2022-11-06T08:36:26;99676.03;;;6.39;100.00
14253;BME280;7210;51.502;10.722;2022-11-06T08:38:54;99672.03;;;6.43;100.00
14253;BME280;7210;51.502;10.722;2022-11-06T08:41:21;99664.38;;;6.48;100.00
14253;BME280;7210;51.502;10.722;2022-11-06T08:43:50;99674.09;;;6.60;100.00
14253;BME280;7210;51.502;10.722;2022-11-06T08:46:19;99670.47;;;6.68;100.00
14253;BME280;7210;51.502;10.722;2022-11-06T08:48:46;99667.66;;;6.82;100.00
14253;BME280;7210;51.502;10.722;2022-11-06T08:51:14;99656.56;;;6.93;100.00
14253;BME280;7210;51.502;10.722;2022-11-06T08:53:41;99657.97;;;7.15;100.00
14253;BME280;7210;51.502;10.722;2022-11-06T08:56:08;99650.22;;;7.52;100.00
14253;BME280;7210;51.502;10.722;2022-11-06T08:58:36;99644.53;;;7.68;100.00
14253;BME280;7210;51.502;10.722;2022-11-06T09:01:03;99640.41;;;7.85;100.00
14253;BME280;7210;51.502;10.722;2022-11-06T09:03:31;99637.25;;;8.14;100.00
14253;BME280;7210;51.502;10.722;2022-11-06T09:05:59;99627.28;;;8.29;100.00
14253;BME280;7210;51.502;10.722;2022-11-06T09:08:26;99617.91;;;8.40;100.00
14253;BME280;7210;51.502;10.722;2022-11-06T09:10:53;99616.56;;;8.62;100.00
14253;BME280;7210;51.502;10.722;2022-11-06T09:13:21;99615.97;;;8.84;100.00
14253;BME280;7210;51.502;10.722;2022-11-06T09:15:48;99611.19;;;8.99;100.00
14253;BME280;7210;51.502;10.722;2022-11-06T09:18:15;99607.38;;;8.95;100.00
14253;BME280;7210;51.502;10.722;2022-11-06T09:20:44;99602.69;;;8.97;100.00
14253;BME280;7210;51.502;10.722;2022-11-06T09:23:12;99595.25;;;9.12;100.00
14253;BME280;7210;51.502;10.722;2022-11-06T09:25:39;99594.97;;;9.20;100.00
14253;BME280;7210;51.502;10.722;2022-11-06T09:28:06;99597.34;;;9.28;100.00
14253;BME280;7210;51.502;10.722;2022-11-06T09:30:34;99592.56;;;9.19;100.00
14253;BME280;7210;51.502;10.722;2022-11-06T09:33:02;99588.84;;;9.44;100.00
14253;BME280;7210;51.502;10.722;2022-11-06T09:35:32;99589.44;;;9.46;100.00
14253;BME280;7210;51.502;10.722;2022-11-06T09:38:02;99584.44;;;9.56;99.77
14253;BME280;7210;51.502;10.722;2022-11-06T09:40:40;99576.22;;;9.64;98.28
14253;BME280;7210;51.502;10.722;2022-11-06T09:43:45;99574.19;;;9.66;97.52
14253;BME280;7210;51.502;10.722;2022-11-06T09:46:22;99572.41;;;9.78;96.47
14253;BME280;7210;51.502;10.722;2022-11-06T09:48:57;99566.97;;;9.91;95.45
14253;BME280;7210;51.502;10.722;2022-11-06T09:51:36;99564.56;;;10.08;94.07
14253;BME280;7210;51.502;10.722;2022-11-06T09:54:13;99563.88;;;10.12;93.35
14253;BME280;7210;51.502;10.722;2022-11-06T09:56:44;99552.84;;;10.15;92.33
14253;BME280;7210;51.502;10.722;2022-11-06T09:59:18;99542.53;;;10.25;92.09
14253;BME280;7210;51.502;10.722;2022-11-06T10:01:50;99533.94;;;10.30;91.09
14253;BME280;7210;51.502;10.722;2022-11-06T10:04:35;99537.63;;;10.40;87.33
14253;BME280;7210;51.502;10.722;2022-11-06T10:07:10;99547.53;;;10.56;85.93
14253;BME280;7210;51.502;10.722;2022-11-06T10:09:48;99545.47;;;10.47;82.76
14253;BME280;7210;51.502;10.722;2022-11-06T10:12:25;99547.31;;;10.46;83.28
14253;BME280;7210;51.502;10.722;2022-11-06T10:15:06;99543.63;;;10.47;82.96
14253;BME280;7210;51.502;10.722;2022-11-06T10:17:53;99521.22;;;10.38;83.68
14253;BME280;7210;51.502;10.722;2022-11-06T10:20:30;99540.88;;;10.54;84.24
14253;BME280;7210;51.502;10.722;2022-11-06T10:23:11;99516.44;;;10.58;84.95
14253;BME280;7210;51.502;10.722;2022-11-06T10:26:06;99505.94;;;10.63;88.41
14253;BME280;7210;51.502;10.722;2022-11-06T10:28:58;99504.47;;;10.67;88.22
14253;BME280;7210;51.502;10.722;2022-11-06T10:31:42;99517.56;;;10.74;88.35
14253;BME280;7210;51.502;10.722;2022-11-06T10:34:34;99510.91;;;10.83;87.88
14253;BME280;7210;51.502;10.722;2022-11-06T10:37:10;99506.09;;;10.91;87.71
14253;BME280;7210;51.502;10.722;2022-11-06T10:39:42;99492.94;;;10.96;80.21
14253;BME280;7210;51.502;10.722;2022-11-06T10:42:22;99490.44;;;11.01;86.49
14253;BME280;7210;51.502;10.722;2022-11-06T10:44:59;99478.72;;;10.97;85.97
14253;BME280;7210;51.502;10.722;2022-11-06T10:47:39;99471.19;;;11.17;84.99
14253;BME280;7210;51.502;10.722;2022-11-06T10:50:13;99464.78;;;11.13;84.85
14253;BME280;7210;51.502;10.722;2022-11-06T10:52:50;99457.94;;;11.28;84.13
14253;BME280;7210;51.502;10.722;2022-11-06T10:56:01;99455.25;;;11.40;83.52
14253;BME280;7210;51.502;10.722;2022-11-06T10:58:34;99451.00;;;11.39;83.18
14253;BME280;7210;51.502;10.722;2022-11-06T11:01:23;99437.53;;;11.40;82.62
14253;BME280;7210;51.502;10.722;2022-11-06T11:03:50;99436.16;;;11.38;82.10
14253;BME280;7210;51.502;10.722;2022-11-06T11:06:18;99447.31;;;11.40;82.12
14253;BME280;7210;51.502;10.722;2022-11-06T11:08:49;99440.59;;;11.49;82.14
14253;BME280;7210;51.502;10.722;2022-11-06T11:11:25;99444.06;;;11.61;76.84
14253;BME280;7210;51.502;10.722;2022-11-06T11:14:22;99431.53;;;11.73;81.55
14253;BME280;7210;51.502;10.722;2022-11-06T11:16:52;99416.84;;;11.65;77.02
14253;BME280;7210;51.502;10.722;2022-11-06T11:19:33;99411.00;;;11.80;77.08
14253;BME280;7210;51.502;10.722;2022-11-06T11:22:04;99400.41;;;11.80;77.08
14253;BME280;7210;51.502;10.722;2022-11-06T11:24:59;99406.38;;;11.87;77.18
14253;BME280;7210;51.502;10.722;2022-11-06T11:27:28;99399.47;;;11.86;76.64
14253;BME280;7210;51.502;10.722;2022-11-06T11:29:59;99402.50;;;11.78;78.53
14253;BME280;7210;51.502;10.722;2022-11-06T11:32:29;99397.22;;;11.78;77.96
14253;BME280;7210;51.502;10.722;2022-11-06T11:34:57;99393.84;;;11.82;78.10
14253;BME280;7210;51.502;10.722;2022-11-06T11:37:28;99377.00;;;11.88;78.11
14253;BME280;7210;51.502;10.722;2022-11-06T11:40:31;99377.97;;;11.99;76.72
14253;BME280;7210;51.502;10.722;2022-11-06T11:43:20;99367.03;;;12.12;76.02
14253;BME280;7210;51.502;10.722;2022-11-06T11:46:14;99361.66;;;12.07;68.86
14253;BME280;7210;51.502;10.722;2022-11-06T11:48:46;99361.72;;;12.12;68.76
14253;BME280;7210;51.502;10.722;2022-11-06T11:51:29;99351.44;;;12.15;66.64
14253;BME280;7210;51.502;10.722;2022-11-06T11:54:06;99347.59;;;12.23;70.40
14253;BME280;7210;51.502;10.722;2022-11-06T11:56:47;99343.09;;;12.23;73.13
14253;BME280;7210;51.502;10.722;2022-11-06T11:59:19;99341.06;;;12.30;73.45
14253;BME280;7210;51.502;10.722;2022-11-06T12:01:49;99338.72;;;12.34;72.89
14253;BME280;7210;51.502;10.722;2022-11-06T12:04:25;99331.47;;;12.24;72.13
14253;BME280;7210;51.502;10.722;2022-11-06T12:06:58;99323.66;;;12.18;71.94
14253;BME280;7210;51.502;10.722;2022-11-06T12:09:29;99335.53;;;12.32;66.27
14253;BME280;7210;51.502;10.722;2022-11-06T12:12:00;99337.22;;;12.38;72.23
14253;BME280;7210;51.502;10.722;2022-11-06T12:14:34;99320.81;;;12.41;71.03
14253;BME280;7210;51.502;10.722;2022-11-06T12:17:19;99310.75;;;12.43;70.31
14253;BME280;7210;51.502;10.722;2022-11-06T12:19:52;99313.97;;;12.45;70.36
14253;BME280;7210;51.502;10.722;2022-11-06T12:22:28;99297.75;;;12.41;69.68
14253;BME280;7210;51.502;10.722;2022-11-06T12:25:04;99314.22;;;12.43;69.78
14253;BME280;7210;51.502;10.722;2022-11-06T12:27:40;99308.09;;;12.43;69.31
14253;BME280;7210;51.502;10.722;2022-11-06T12:30:11;99298.81;;;12.40;69.08
14253;BME280;7210;51.502;10.722;2022-11-06T12:32:59;99303.84;;;12.42;69.09
14253;BME280;7210;51.502;10.722;2022-11-06T12:35:30;99300.16;;;12.43;68.70
14253;BME280;7210;51.502;10.722;2022-11-06T12:38:16;99281.00;;;12.36;67.17
14253;BME280;7210;51.502;10.722;2022-11-06T12:40:53;99291.28;;;12.32;66.70
14253;BME280;7210;51.502;10.722;2022-11-06T12:43:32;99288.00;;;12.25;66.04
14253;BME280;7210;51.502;10.722;2022-11-06T12:46:32;99276.44;;;12.15;65.37
14253;BME280;7210;51.502;10.722;2022-11-06T12:49:51;99279.53;;;12.07;64.81
14253;BME280;7210;51.502;10.722;2022-11-06T12:52:38;99280.06;;;12.09;64.36
14253;BME280;7210;51.502;10.722;2022-11-06T12:55:22;99252.47;;;12.05;63.16
14253;BME280;7210;51.502;10.722;2022-11-06T13:00:58;99269.38;;;12.04;63.26
14253;BME280;7210;51.502;10.722;2022-11-06T13:04:06;99257.50;;;12.06;62.82
14253;BME280;7210;51.502;10.722;2022-11-06T13:10:08;99263.13;;;12.10;62.36
14253;BME280;7210;51.502;10.722;2022-11-06T13:12:51;99259.41;;;12.11;62.41
14253;BME280;7210;51.502;10.722;2022-11-06T13:15:30;99251.75;;;12.09;62.57
14253;BME280;7210;51.502;10.722;2022-11-06T13:18:08;99257.34;;;12.13;62.83
14253;BME280;7210;51.502;10.722;2022-11-06T13:20:51;99242.22;;;12.13;61.42
14253;BME280;7210;51.502;10.722;2022-11-06T13:23:28;99245.75;;;12.19;61.25
14253;BME280;7210;51.502;10.722;2022-11-06T13:26:08;99247.97;;;12.27;61.64
14253;BME280;7210;51.502;10.722;2022-11-06T13:28:42;99245.94;;;12.34;62.19
14253;BME280;7210;51.502;10.722;2022-11-06T13:31:17;99268.31;;;12.43;62.66
14253;BME280;7210;51.502;10.722;2022-11-06T13:33:53;99253.44;;;12.37;62.42
14253;BME280;7210;51.502;10.722;2022-11-06T13:36:24;99257.13;;;12.36;62.47
14253;BME280;7210;51.502;10.722;2022-11-06T13:39:02;99253.44;;;12.37;62.54
14253;BME280;7210;51.502;10.722;2022-11-06T13:41:34;99262.59;;;12.29;62.53
14253;BME280;7210;51.502;10.722;2022-11-06T13:44:08;99248.97;;;12.21;62.51